createdAt,value
2019-01-29T00:00:35.290Z,10.05
2019-01-29T00:01:45.198Z,11.53
2019-01-29T00:02:52.396Z,9.05
2019-01-29T00:03:59.084Z,7.05
2019-01-29T00:05:06.605Z,10.43
2019-01-29T00:06:13.694Z,9.48
2019-01-29T00:07:20.736Z,7.22
2019-01-29T00:08:27.380Z,17.10
2019-01-29T00:09:34.251Z,6.47
2019-01-29T00:10:41.282Z,8.75
2019-01-29T00:11:47.940Z,11.43
2019-01-29T00:12:54.608Z,7.12
2019-01-29T00:14:01.579Z,5.37
2019-01-29T00:15:08.782Z,6.10
2019-01-29T00:16:15.445Z,6.85
2019-01-29T00:17:22.988Z,3.67
2019-01-29T00:18:30.032Z,23.50
2019-01-29T00:19:36.702Z,7.45
2019-01-29T00:20:43.634Z,11.83
2019-01-29T00:21:50.338Z,10.18
2019-01-29T00:22:57.119Z,5.83
2019-01-29T00:24:04.077Z,7.05
2019-01-29T00:25:11.383Z,8.70
2019-01-29T00:26:18.193Z,19.17
2019-01-29T00:27:24.843Z,4.37
2019-01-29T00:28:31.537Z,7.25
2019-01-29T00:29:38.214Z,6.58
2019-01-29T00:30:45.185Z,12.95
2019-01-29T00:31:51.843Z,7.25
2019-01-29T00:32:58.934Z,5.30
2019-01-29T00:34:06.488Z,6.67
2019-01-29T00:35:13.465Z,12.25
2019-01-29T00:36:20.173Z,6.50
2019-01-29T00:37:26.815Z,7.35
2019-01-29T00:38:33.808Z,16.05
2019-01-29T00:39:40.466Z,10.63
2019-01-29T00:40:47.455Z,8.20
2019-01-29T00:41:54.115Z,12.60
2019-01-29T00:43:00.866Z,14.70
2019-01-29T00:44:07.871Z,12.95
2019-01-29T00:45:15.047Z,4.50
2019-01-29T00:46:22.669Z,10.50
2019-01-29T00:47:30.054Z,10.28
2019-01-29T00:48:36.748Z,13.45
2019-01-29T00:49:43.862Z,3.30
2019-01-29T00:50:50.904Z,6.62
2019-01-29T00:51:58.055Z,9.98
2019-01-29T00:53:04.725Z,10.25
2019-01-29T00:54:12.111Z,7.47
2019-01-29T00:55:18.989Z,11.15
2019-01-29T00:56:26.117Z,15.53
2019-01-29T00:57:33.110Z,9.05
2019-01-29T00:58:39.753Z,9.13
2019-01-29T00:59:47.210Z,6.55
2019-01-29T01:00:54.244Z,8.80
2019-01-29T01:02:00.923Z,6.97
2019-01-29T01:03:08.370Z,10.75
2019-01-29T01:04:15.032Z,12.82
2019-01-29T01:05:21.997Z,13.00
2019-01-29T01:06:28.726Z,12.55
2019-01-29T01:07:36.035Z,16.52
2019-01-29T01:08:42.973Z,13.43
2019-01-29T01:09:57.056Z,10.60
2019-01-29T01:10:58.423Z,6.58
2019-01-29T01:12:05.192Z,8.13
2019-01-29T01:13:11.948Z,10.90
2019-01-29T01:14:18.613Z,9.75
2019-01-29T01:15:27.184Z,10.48
2019-01-29T01:16:33.900Z,8.30
2019-01-29T01:17:40.668Z,12.18
2019-01-29T01:18:47.423Z,8.88
2019-01-29T01:19:54.579Z,10.50
2019-01-29T01:21:01.338Z,10.82
2019-01-29T01:22:08.049Z,6.50
2019-01-29T01:23:14.994Z,7.30
2019-01-29T01:24:22.043Z,10.63
2019-01-29T01:25:28.769Z,12.20
2019-01-29T01:26:35.815Z,9.23
2019-01-29T01:27:42.463Z,8.13
2019-01-29T01:28:49.543Z,15.78
2019-01-29T01:29:56.746Z,18.15
2019-01-29T01:31:03.714Z,8.48
2019-01-29T01:32:10.408Z,13.00
2019-01-29T01:33:17.360Z,11.60
2019-01-29T01:34:24.121Z,12.37
2019-01-29T01:35:31.124Z,5.72
2019-01-29T01:36:38.178Z,12.80
2019-01-29T01:37:45.263Z,14.38
2019-01-29T01:38:52.198Z,10.00
2019-01-29T01:39:58.910Z,14.90
2019-01-29T01:41:06.194Z,13.38
2019-01-29T01:42:12.901Z,12.13
2019-01-29T01:43:19.883Z,10.43
2019-01-29T01:44:26.627Z,13.05
2019-01-29T01:45:33.278Z,6.95
2019-01-29T01:46:40.079Z,7.12
2019-01-29T01:47:46.896Z,9.28
2019-01-29T01:48:53.891Z,17.77
2019-01-29T01:50:00.603Z,14.58
2019-01-29T01:51:07.330Z,10.68
2019-01-29T01:52:14.051Z,13.85
2019-01-29T01:53:21.128Z,11.48
2019-01-29T01:54:27.830Z,11.00
2019-01-29T01:55:34.837Z,15.00
2019-01-29T01:56:41.527Z,11.35
2019-01-29T01:57:48.635Z,18.82
2019-01-29T01:58:55.650Z,9.83
2019-01-29T02:00:02.347Z,10.53
2019-01-29T02:01:09.308Z,11.25
2019-01-29T02:02:16.270Z,8.30
2019-01-29T02:03:23.041Z,10.40
2019-01-29T02:04:30.051Z,12.07
2019-01-29T02:05:36.718Z,9.48
2019-01-29T02:06:43.388Z,9.65
2019-01-29T02:07:50.390Z,7.17
2019-01-29T02:08:57.213Z,11.95
2019-01-29T02:10:05.767Z,14.68
2019-01-29T02:11:12.475Z,21.85
2019-01-29T02:12:19.458Z,5.17
2019-01-29T02:13:26.196Z,6.20
2019-01-29T02:14:33.305Z,9.30
2019-01-29T02:15:40.059Z,11.65
2019-01-29T02:16:46.706Z,8.60
2019-01-29T02:17:54.062Z,10.20
2019-01-29T02:19:00.713Z,9.83
2019-01-29T02:20:09.283Z,6.65
2019-01-29T02:21:16.290Z,7.42
2019-01-29T02:22:23.480Z,12.20
2019-01-29T02:23:30.278Z,17.90
2019-01-29T02:24:37.033Z,5.75
2019-01-29T02:25:43.875Z,13.58
2019-01-29T02:26:50.954Z,13.55
2019-01-29T02:27:57.938Z,20.77
2019-01-29T02:29:05.165Z,8.30
2019-01-29T02:30:19.020Z,20.45
2019-01-29T02:31:27.329Z,11.10
2019-01-29T02:32:34.088Z,10.53
2019-01-29T02:33:40.978Z,20.65
2019-01-29T02:34:47.701Z,6.25
2019-01-29T02:35:54.414Z,12.58
2019-01-29T02:37:01.630Z,15.30
2019-01-29T02:38:08.614Z,16.32
2019-01-29T02:39:15.663Z,10.68
2019-01-29T02:40:25.594Z,9.30
2019-01-29T02:41:32.603Z,8.55
2019-01-29T02:42:39.742Z,8.45
2019-01-29T02:43:46.394Z,8.03
2019-01-29T02:44:53.154Z,10.48
2019-01-29T02:45:59.832Z,21.70
2019-01-29T02:47:06.510Z,7.50
2019-01-29T02:48:13.245Z,8.50
2019-01-29T02:49:19.885Z,13.48
2019-01-29T02:50:27.067Z,3.30
2019-01-29T02:51:34.195Z,14.98
2019-01-29T02:52:40.931Z,18.37
2019-01-29T02:53:47.614Z,11.83
2019-01-29T02:54:54.716Z,10.48
2019-01-29T02:56:01.751Z,8.58
2019-01-29T02:57:08.475Z,5.08
2019-01-29T02:58:15.125Z,13.50
2019-01-29T02:59:21.790Z,7.17
2019-01-29T03:00:32.009Z,13.10
2019-01-29T03:01:38.697Z,13.83
2019-01-29T03:02:45.343Z,9.15
2019-01-29T03:03:52.173Z,7.50
2019-01-29T03:04:58.875Z,18.55
2019-01-29T03:06:06.427Z,8.25
2019-01-29T03:07:13.313Z,18.67
2019-01-29T03:08:19.984Z,5.65
2019-01-29T03:09:26.695Z,10.63
2019-01-29T03:10:33.415Z,13.08
2019-01-29T03:11:40.445Z,10.65
2019-01-29T03:12:47.410Z,8.38
2019-01-29T03:13:56.726Z,13.28
2019-01-29T03:15:04.211Z,17.12
2019-01-29T03:16:10.990Z,8.15
2019-01-29T03:17:17.691Z,4.92
2019-01-29T03:18:24.393Z,21.00
2019-01-29T03:19:31.310Z,8.78
2019-01-29T03:20:38.039Z,8.70
2019-01-29T03:21:44.675Z,7.17
2019-01-29T03:22:51.801Z,7.50
2019-01-29T03:23:58.435Z,9.00
2019-01-29T03:25:06.500Z,7.95
2019-01-29T03:26:13.683Z,11.35
2019-01-29T03:27:20.408Z,6.50
2019-01-29T03:28:27.453Z,18.52
2019-01-29T03:29:35.093Z,9.20
2019-01-29T03:30:41.817Z,10.63
2019-01-29T03:31:48.507Z,11.75
2019-01-29T03:32:55.600Z,10.32
2019-01-29T03:34:02.476Z,17.98
2019-01-29T03:35:12.786Z,15.72
2019-01-29T03:36:19.450Z,8.95
2019-01-29T03:37:26.222Z,17.15
2019-01-29T03:38:32.930Z,5.25
2019-01-29T03:39:40.133Z,9.55
2019-01-29T03:40:46.820Z,13.45
2019-01-29T03:41:53.473Z,9.23
2019-01-29T03:43:00.167Z,13.20
2019-01-29T03:44:06.999Z,11.30
2019-01-29T03:45:16.769Z,11.28
2019-01-29T03:46:23.481Z,10.45
2019-01-29T03:47:30.145Z,2.80
2019-01-29T03:48:36.852Z,12.73
2019-01-29T03:49:43.515Z,9.35
2019-01-29T03:50:50.280Z,13.78
2019-01-29T03:51:56.975Z,7.95
2019-01-29T03:53:03.640Z,8.33
2019-01-29T03:54:10.448Z,12.82
2019-01-29T03:55:17.551Z,10.90
2019-01-29T03:56:24.208Z,8.80
2019-01-29T03:57:30.885Z,14.20
2019-01-29T03:58:37.760Z,8.23
2019-01-29T03:59:44.822Z,14.63
2019-01-29T04:00:51.630Z,10.68
2019-01-29T04:01:58.310Z,11.12
2019-01-29T04:03:05.355Z,12.50
2019-01-29T04:04:12.870Z,14.15
2019-01-29T04:05:19.628Z,6.83
2019-01-29T04:06:26.326Z,10.53
2019-01-29T04:07:33.361Z,13.08
2019-01-29T04:08:40.394Z,7.92
2019-01-29T04:09:47.042Z,19.48
2019-01-29T04:10:54.061Z,21.80
2019-01-29T04:12:01.132Z,13.00
2019-01-29T04:13:07.864Z,12.93
2019-01-29T04:14:14.862Z,14.45
2019-01-29T04:15:23.597Z,15.58
2019-01-29T04:16:31.085Z,9.18
2019-01-29T04:17:38.024Z,20.43
2019-01-29T04:18:45.024Z,12.80
2019-01-29T04:19:51.786Z,10.60
2019-01-29T04:20:58.869Z,9.60
2019-01-29T04:22:05.870Z,7.72
2019-01-29T04:23:12.558Z,22.98
2019-01-29T04:24:19.209Z,17.20
2019-01-29T04:25:26.506Z,12.25
2019-01-29T04:26:33.195Z,10.15
2019-01-29T04:27:39.886Z,8.45
2019-01-29T04:28:46.542Z,14.63
2019-01-29T04:29:53.222Z,15.48
2019-01-29T04:31:00.073Z,23.50
2019-01-29T04:32:06.974Z,16.77
2019-01-29T04:33:13.661Z,20.20
2019-01-29T04:34:20.332Z,9.08
2019-01-29T04:35:27.002Z,11.85
2019-01-29T04:36:34.188Z,11.73
2019-01-29T04:37:41.236Z,14.10
2019-01-29T04:38:47.910Z,22.50
2019-01-29T04:39:54.971Z,15.98
2019-01-29T04:41:02.324Z,12.98
2019-01-29T04:42:09.059Z,9.60
2019-01-29T04:43:15.800Z,18.05
2019-01-29T04:44:22.629Z,11.15
2019-01-29T04:45:29.341Z,9.30
2019-01-29T04:46:36.422Z,12.07
2019-01-29T04:47:43.519Z,7.90
2019-01-29T04:48:50.167Z,11.38
2019-01-29T04:49:56.880Z,14.70
2019-01-29T04:51:03.617Z,21.23
2019-01-29T04:52:10.659Z,11.33
2019-01-29T04:53:17.313Z,12.28
2019-01-29T04:54:23.991Z,10.63
2019-01-29T04:55:30.683Z,14.65
2019-01-29T04:56:37.373Z,9.80
2019-01-29T04:57:44.073Z,13.38
2019-01-29T04:58:50.829Z,15.45
2019-01-29T04:59:57.497Z,13.78
2019-01-29T05:01:04.188Z,19.77
2019-01-29T05:02:11.242Z,16.62
2019-01-29T05:03:19.185Z,18.90
2019-01-29T05:04:25.895Z,20.95
2019-01-29T05:05:32.545Z,17.25
2019-01-29T05:06:39.235Z,13.80
2019-01-29T05:07:45.912Z,22.48
2019-01-29T05:08:52.654Z,12.82
2019-01-29T05:09:59.311Z,12.00
2019-01-29T05:11:06.329Z,20.08
2019-01-29T05:12:13.404Z,10.93
2019-01-29T05:13:20.681Z,14.38
2019-01-29T05:14:27.443Z,12.20
2019-01-29T05:15:34.745Z,22.20
2019-01-29T05:16:41.486Z,21.07
2019-01-29T05:17:48.149Z,22.93
2019-01-29T05:18:55.508Z,12.15
2019-01-29T05:20:02.542Z,13.98
2019-01-29T05:21:09.522Z,22.85
2019-01-29T05:22:16.486Z,16.27
2019-01-29T05:23:23.175Z,14.07
2019-01-29T05:24:29.911Z,16.50
2019-01-29T05:25:36.588Z,21.00
2019-01-29T05:26:44.035Z,21.10
2019-01-29T05:27:50.985Z,14.25
2019-01-29T05:28:57.658Z,16.48
2019-01-29T05:30:05.429Z,15.58
2019-01-29T05:31:12.074Z,18.70
2019-01-29T05:32:18.741Z,14.40
2019-01-29T05:33:25.941Z,18.12
2019-01-29T05:34:32.687Z,15.78
2019-01-29T05:35:39.370Z,19.20
2019-01-29T05:36:46.493Z,18.85
2019-01-29T05:37:53.796Z,17.40
2019-01-29T05:39:00.511Z,17.02
2019-01-29T05:40:10.194Z,10.32
2019-01-29T05:41:17.569Z,17.32
2019-01-29T05:42:24.231Z,16.23
2019-01-29T05:43:30.909Z,15.23
2019-01-29T05:44:37.642Z,21.45
2019-01-29T05:45:44.500Z,10.30
2019-01-29T05:46:51.504Z,9.90
2019-01-29T05:47:58.556Z,12.80
2019-01-29T05:49:05.800Z,19.27
2019-01-29T05:50:13.719Z,14.55
2019-01-29T05:51:20.432Z,27.45
2019-01-29T05:52:27.139Z,21.85
2019-01-29T05:53:34.293Z,30.30
2019-01-29T05:54:41.349Z,12.78
2019-01-29T05:55:48.563Z,12.58
2019-01-29T05:56:55.910Z,21.87
2019-01-29T05:58:02.652Z,14.98
2019-01-29T05:59:09.359Z,19.67
2019-01-29T06:00:27.970Z,9.75
2019-01-29T06:01:34.824Z,10.82
2019-01-29T06:02:41.868Z,16.57
2019-01-29T06:03:48.970Z,13.80
2019-01-29T06:04:55.767Z,22.73
2019-01-29T06:06:02.465Z,20.10
2019-01-29T06:07:09.558Z,17.60
2019-01-29T06:08:16.226Z,13.48
2019-01-29T06:09:23.190Z,20.20
2019-01-29T06:10:30.028Z,13.25
2019-01-29T06:11:36.748Z,10.15
2019-01-29T06:12:43.778Z,12.07
2019-01-29T06:13:50.499Z,11.05
2019-01-29T06:14:57.163Z,13.80
2019-01-29T06:16:03.884Z,14.33
2019-01-29T06:17:10.581Z,15.10
2019-01-29T06:18:18.099Z,12.58
2019-01-29T06:19:24.771Z,15.60
2019-01-29T06:20:32.146Z,14.07
2019-01-29T06:21:39.322Z,12.13
2019-01-29T06:22:46.398Z,13.55
2019-01-29T06:23:53.092Z,25.92
2019-01-29T06:24:59.772Z,11.93
2019-01-29T06:26:06.612Z,17.67
2019-01-29T06:27:13.428Z,16.07
2019-01-29T06:28:20.377Z,20.57
2019-01-29T06:29:27.015Z,14.55
2019-01-29T06:30:34.215Z,21.73
2019-01-29T06:31:41.174Z,16.12
2019-01-29T06:32:48.112Z,23.30
2019-01-29T06:33:54.796Z,16.05
2019-01-29T06:35:02.241Z,22.62
2019-01-29T06:36:09.384Z,23.25
2019-01-29T06:37:16.064Z,18.05
2019-01-29T06:38:23.126Z,20.95
2019-01-29T06:39:29.825Z,23.45
2019-01-29T06:40:36.871Z,16.00
2019-01-29T06:41:44.199Z,17.75
2019-01-29T06:42:51.260Z,19.55
2019-01-29T06:43:58.418Z,18.95
2019-01-29T06:45:06.557Z,21.12
2019-01-29T06:46:13.283Z,16.95
2019-01-29T06:47:20.263Z,16.75
2019-01-29T06:48:26.991Z,20.23
2019-01-29T06:49:33.637Z,23.35
2019-01-29T06:50:40.381Z,31.93
2019-01-29T06:51:47.454Z,23.25
2019-01-29T06:52:54.449Z,14.65
2019-01-29T06:54:01.133Z,29.18
2019-01-29T06:55:10.632Z,19.42
2019-01-29T06:56:17.289Z,23.07
2019-01-29T06:57:24.288Z,24.85
2019-01-29T06:58:31.015Z,23.10
2019-01-29T06:59:37.779Z,17.12
2019-01-29T07:00:44.727Z,23.45
2019-01-29T07:01:51.471Z,17.55
2019-01-29T07:03:00.310Z,21.12
2019-01-29T07:04:07.060Z,21.87
2019-01-29T07:05:14.273Z,13.65
2019-01-29T07:06:21.284Z,15.65
2019-01-29T07:07:28.284Z,14.45
2019-01-29T07:08:35.431Z,21.05
2019-01-29T07:09:42.193Z,23.52
2019-01-29T07:10:49.252Z,18.57
2019-01-29T07:12:02.926Z,20.52
2019-01-29T07:13:09.712Z,21.85
2019-01-29T07:14:16.501Z,29.92
2019-01-29T07:15:43.102Z,21.85
2019-01-29T07:17:05.851Z,19.15
2019-01-29T07:18:43.506Z,20.95
2019-01-29T07:19:53.359Z,20.02
2019-01-29T07:21:00.135Z,26.90
2019-01-29T07:22:07.188Z,32.38
2019-01-29T07:23:13.905Z,24.55
2019-01-29T07:24:20.589Z,19.17
2019-01-29T07:25:27.284Z,22.98
2019-01-29T07:26:33.987Z,24.15
2019-01-29T07:27:40.658Z,26.35
2019-01-29T07:28:47.736Z,30.10
2019-01-29T07:29:55.126Z,26.85
2019-01-29T07:31:02.183Z,29.52
2019-01-29T07:32:09.745Z,24.12
2019-01-29T07:33:16.473Z,29.77
2019-01-29T07:34:23.487Z,22.10
2019-01-29T07:35:30.203Z,19.48
2019-01-29T07:36:36.877Z,25.82
2019-01-29T07:37:44.006Z,34.92
2019-01-29T07:38:50.696Z,21.65
2019-01-29T07:39:57.468Z,25.43
2019-01-29T07:41:04.294Z,32.53
2019-01-29T07:42:11.401Z,24.15
2019-01-29T07:43:18.105Z,33.35
2019-01-29T07:44:24.777Z,34.85
2019-01-29T07:45:31.504Z,24.00
2019-01-29T07:46:38.703Z,25.92
2019-01-29T07:47:45.359Z,32.93
2019-01-29T07:48:52.439Z,27.13
2019-01-29T07:49:59.090Z,30.05
2019-01-29T07:51:05.860Z,34.27
2019-01-29T07:52:12.906Z,28.27
2019-01-29T07:53:19.754Z,32.42
2019-01-29T07:54:33.258Z,24.60
2019-01-29T07:55:35.319Z,28.70
2019-01-29T07:56:42.056Z,32.13
2019-01-29T07:57:49.050Z,34.10
2019-01-29T07:58:55.745Z,29.77
2019-01-29T08:00:02.410Z,26.45
2019-01-29T08:01:09.328Z,28.95
2019-01-29T08:02:16.005Z,31.12
2019-01-29T08:03:22.764Z,28.70
2019-01-29T08:04:29.406Z,25.88
2019-01-29T08:05:36.164Z,29.02
2019-01-29T08:06:43.162Z,37.25
2019-01-29T08:07:49.894Z,26.30
2019-01-29T08:08:56.630Z,26.42
2019-01-29T08:10:03.320Z,30.92
2019-01-29T08:11:09.981Z,31.15
2019-01-29T08:12:16.646Z,28.98
2019-01-29T08:13:23.638Z,29.70
2019-01-29T08:14:30.892Z,34.18
2019-01-29T08:15:37.570Z,22.90
2019-01-29T08:16:44.569Z,29.40
2019-01-29T08:17:51.286Z,26.40
2019-01-29T08:18:58.047Z,24.40
2019-01-29T08:20:05.782Z,36.53
2019-01-29T08:21:12.456Z,27.37
2019-01-29T08:22:19.156Z,27.02
2019-01-29T08:23:25.837Z,33.13
2019-01-29T08:24:32.882Z,26.85
2019-01-29T08:25:47.362Z,36.03
2019-01-29T08:26:47.998Z,28.92
2019-01-29T08:27:54.654Z,28.95
2019-01-29T08:29:01.870Z,27.70
2019-01-29T08:30:09.333Z,27.82
2019-01-29T08:31:16.381Z,30.43
2019-01-29T08:32:23.113Z,30.05
2019-01-29T08:33:29.789Z,27.75
2019-01-29T08:34:36.879Z,28.95
2019-01-29T08:35:43.660Z,28.17
2019-01-29T08:36:50.437Z,26.95
2019-01-29T08:37:57.121Z,32.73
2019-01-29T08:39:05.671Z,26.68
2019-01-29T08:40:12.889Z,29.85
2019-01-29T08:41:19.674Z,34.10
2019-01-29T08:42:26.399Z,29.12
2019-01-29T08:43:33.425Z,32.75
2019-01-29T08:44:40.804Z,32.30
2019-01-29T08:45:47.521Z,34.27
2019-01-29T08:46:54.171Z,35.00
2019-01-29T08:48:00.871Z,29.95
2019-01-29T08:49:07.669Z,26.62
2019-01-29T08:50:19.519Z,37.93
2019-01-29T08:51:26.545Z,42.05
2019-01-29T08:52:33.623Z,28.98
2019-01-29T08:53:40.725Z,40.00
2019-01-29T08:54:47.383Z,31.97
2019-01-29T08:55:54.171Z,34.23
2019-01-29T08:57:00.813Z,33.95
2019-01-29T08:58:07.553Z,31.85
2019-01-29T08:59:14.284Z,32.55
2019-01-29T09:00:20.969Z,46.80
2019-01-29T09:01:27.669Z,32.80
2019-01-29T09:02:34.417Z,46.00
2019-01-29T09:03:41.680Z,44.33
2019-01-29T09:04:48.330Z,32.17
2019-01-29T09:05:55.387Z,31.40
2019-01-29T09:07:02.366Z,32.40
2019-01-29T09:08:09.144Z,36.48
2019-01-29T09:09:15.871Z,33.33
2019-01-29T09:10:22.855Z,34.48
2019-01-29T09:11:29.862Z,32.25
2019-01-29T09:12:36.965Z,53.23
2019-01-29T09:13:43.756Z,32.88
2019-01-29T09:14:50.421Z,27.55
2019-01-29T09:15:57.099Z,38.38
2019-01-29T09:17:03.787Z,30.48
2019-01-29T09:18:10.469Z,35.48
2019-01-29T09:19:17.199Z,34.48
2019-01-29T09:20:24.158Z,33.70
2019-01-29T09:21:30.900Z,42.53
2019-01-29T09:22:37.665Z,37.65
2019-01-29T09:23:45.076Z,46.23
2019-01-29T09:24:51.765Z,31.73
2019-01-29T09:25:58.454Z,36.40
2019-01-29T09:27:05.264Z,24.27
2019-01-29T09:28:11.944Z,29.48
2019-01-29T09:29:18.952Z,27.42
2019-01-29T09:30:25.644Z,27.77
2019-01-29T09:31:32.383Z,21.68
2019-01-29T09:32:39.432Z,26.07
2019-01-29T09:33:46.198Z,27.85
2019-01-29T09:34:53.176Z,23.83
2019-01-29T09:35:59.868Z,23.62
2019-01-29T09:37:06.814Z,23.45
2019-01-29T09:38:13.644Z,24.47
2019-01-29T09:39:20.672Z,25.32
2019-01-29T09:40:27.665Z,21.70
2019-01-29T09:41:34.390Z,23.57
2019-01-29T09:42:41.385Z,19.90
2019-01-29T09:43:48.540Z,26.07
2019-01-29T09:44:55.276Z,28.45
2019-01-29T09:46:02.639Z,26.62
2019-01-29T09:47:09.457Z,24.47
2019-01-29T09:48:16.432Z,30.97
2019-01-29T09:49:23.182Z,24.43
2019-01-29T09:50:30.601Z,39.00
2019-01-29T09:51:37.323Z,24.50
2019-01-29T09:52:44.487Z,25.25
2019-01-29T09:53:51.359Z,23.55
2019-01-29T09:54:58.039Z,23.40
2019-01-29T09:56:05.231Z,33.15
2019-01-29T09:57:11.956Z,21.35
2019-01-29T09:58:18.942Z,25.15
2019-01-29T09:59:25.663Z,27.65
2019-01-29T10:00:35.560Z,24.20
2019-01-29T10:01:42.263Z,29.55
2019-01-29T10:02:49.347Z,19.30
2019-01-29T10:03:56.052Z,21.75
2019-01-29T10:05:02.749Z,23.67
2019-01-29T10:06:09.660Z,28.67
2019-01-29T10:07:16.330Z,18.10
2019-01-29T10:08:23.033Z,25.20
2019-01-29T10:09:29.699Z,21.68
2019-01-29T10:10:36.592Z,24.55
2019-01-29T10:11:43.366Z,15.60
2019-01-29T10:12:50.482Z,21.68
2019-01-29T10:13:57.232Z,20.60
2019-01-29T10:15:04.308Z,18.10
2019-01-29T10:16:11.846Z,22.70
2019-01-29T10:17:19.215Z,15.48
2019-01-29T10:18:26.251Z,15.78
2019-01-29T10:19:33.237Z,22.07
2019-01-29T10:20:40.128Z,24.18
2019-01-29T10:21:46.779Z,14.68
2019-01-29T10:22:53.475Z,17.10
2019-01-29T10:24:00.304Z,18.75
2019-01-29T10:25:09.955Z,20.70
2019-01-29T10:26:16.692Z,22.25
2019-01-29T10:27:23.752Z,27.00
2019-01-29T10:28:30.807Z,27.25
2019-01-29T10:29:37.855Z,23.07
2019-01-29T10:30:44.528Z,26.35
2019-01-29T10:31:51.267Z,27.45
2019-01-29T10:32:58.259Z,26.70
2019-01-29T10:34:05.288Z,23.10
2019-01-29T10:35:16.056Z,20.35
2019-01-29T10:36:23.085Z,27.15
2019-01-29T10:37:29.795Z,20.40
2019-01-29T10:38:36.820Z,29.55
2019-01-29T10:39:43.505Z,27.90
2019-01-29T10:40:50.157Z,23.98
2019-01-29T10:41:57.212Z,24.80
2019-01-29T10:43:04.101Z,27.35
2019-01-29T10:44:11.093Z,21.45
2019-01-29T10:45:19.927Z,25.35
2019-01-29T10:46:26.917Z,22.48
2019-01-29T10:47:33.639Z,21.33
2019-01-29T10:48:40.633Z,26.50
2019-01-29T10:49:47.300Z,20.30
2019-01-29T10:50:54.111Z,20.43
2019-01-29T10:52:00.786Z,21.55
2019-01-29T10:53:07.938Z,22.80
2019-01-29T10:54:14.624Z,25.20
2019-01-29T10:55:21.279Z,20.50
2019-01-29T10:56:28.356Z,21.05
2019-01-29T10:57:35.037Z,22.65
2019-01-29T10:58:41.748Z,21.80
2019-01-29T10:59:48.750Z,20.27
2019-01-29T11:00:55.734Z,18.98
2019-01-29T11:02:02.506Z,17.45
2019-01-29T11:03:11.158Z,21.07
2019-01-29T11:04:18.230Z,29.80
2019-01-29T11:05:25.309Z,29.30
2019-01-29T11:06:32.348Z,18.73
2019-01-29T11:07:39.073Z,21.30
2019-01-29T11:08:46.413Z,20.12
2019-01-29T11:09:53.115Z,25.80
2019-01-29T11:11:00.148Z,26.35
2019-01-29T11:12:07.372Z,24.85
2019-01-29T11:13:14.099Z,21.27
2019-01-29T11:14:20.748Z,22.82
2019-01-29T11:15:32.080Z,21.17
2019-01-29T11:16:38.860Z,21.37
2019-01-29T11:17:45.620Z,20.23
2019-01-29T11:18:52.298Z,25.80
2019-01-29T11:19:59.046Z,23.90
2019-01-29T11:21:06.302Z,20.40
2019-01-29T11:22:13.049Z,17.95
2019-01-29T11:23:19.778Z,25.25
2019-01-29T11:24:26.415Z,16.65
2019-01-29T11:25:33.298Z,21.75
2019-01-29T11:26:39.986Z,22.62
2019-01-29T11:27:46.939Z,19.17
2019-01-29T11:28:53.927Z,17.52
2019-01-29T11:30:00.572Z,17.77
2019-01-29T11:31:08.285Z,21.23
2019-01-29T11:32:15.027Z,20.23
2019-01-29T11:33:21.692Z,17.17
2019-01-29T11:34:28.412Z,18.15
2019-01-29T11:35:35.164Z,23.60
2019-01-29T11:36:42.354Z,20.65
2019-01-29T11:37:49.040Z,22.22
2019-01-29T11:38:55.704Z,22.40
2019-01-29T11:40:02.792Z,22.20
2019-01-29T11:41:10.028Z,18.90
2019-01-29T11:42:17.030Z,28.00
2019-01-29T11:43:23.695Z,24.00
2019-01-29T11:44:31.018Z,29.32
2019-01-29T11:45:50.934Z,26.00
2019-01-29T11:46:57.712Z,21.42
2019-01-29T11:48:04.741Z,18.95
2019-01-29T11:49:11.441Z,19.23
2019-01-29T11:50:18.136Z,18.12
2019-01-29T11:51:25.193Z,29.72
2019-01-29T11:52:31.869Z,24.18
2019-01-29T11:53:38.538Z,27.03
2019-01-29T11:54:45.202Z,29.95
2019-01-29T11:55:51.853Z,35.78
2019-01-29T11:56:58.851Z,30.75
2019-01-29T11:58:06.355Z,34.45
2019-01-29T11:59:13.445Z,41.70
2019-01-29T12:00:30.660Z,21.48
2019-01-29T12:01:37.471Z,26.48
2019-01-29T12:02:44.177Z,17.32
2019-01-29T12:03:51.268Z,18.20
2019-01-29T12:04:57.943Z,16.67
2019-01-29T12:06:05.555Z,26.55
2019-01-29T12:07:12.300Z,16.60
2019-01-29T12:08:19.806Z,27.10
2019-01-29T12:09:27.156Z,21.33
2019-01-29T12:10:34.044Z,14.38
2019-01-29T12:11:41.045Z,22.35
2019-01-29T12:12:47.702Z,13.83
2019-01-29T12:13:54.671Z,27.00
2019-01-29T12:15:01.379Z,16.65
2019-01-29T12:16:08.114Z,18.15
2019-01-29T12:17:14.763Z,22.55
2019-01-29T12:18:21.932Z,17.73
2019-01-29T12:19:28.948Z,19.37
2019-01-29T12:20:35.631Z,20.65
2019-01-29T12:21:42.696Z,16.42
2019-01-29T12:22:49.854Z,20.23
2019-01-29T12:23:56.547Z,19.50
2019-01-29T12:25:03.789Z,17.95
2019-01-29T12:26:13.178Z,14.83
2019-01-29T12:27:18.930Z,15.18
2019-01-29T12:28:25.573Z,17.12
2019-01-29T12:29:32.281Z,15.60
2019-01-29T12:30:38.950Z,13.60
2019-01-29T12:31:45.863Z,13.58
2019-01-29T12:32:53.509Z,17.07
2019-01-29T12:34:00.521Z,24.10
2019-01-29T12:35:08.694Z,15.55
2019-01-29T12:36:15.344Z,15.08
2019-01-29T12:37:22.364Z,16.67
2019-01-29T12:38:29.511Z,24.02
2019-01-29T12:39:36.567Z,15.38
2019-01-29T12:40:43.329Z,19.10
2019-01-29T12:41:50.026Z,21.73
2019-01-29T12:42:56.659Z,16.10
2019-01-29T12:44:03.747Z,16.73
2019-01-29T12:45:31.815Z,22.05
2019-01-29T12:46:38.562Z,17.20
2019-01-29T12:47:45.821Z,22.80
2019-01-29T12:48:52.803Z,17.45
2019-01-29T12:49:59.455Z,19.98
2019-01-29T12:51:11.610Z,18.12
2019-01-29T12:52:33.592Z,17.15
2019-01-29T12:53:42.031Z,26.25
2019-01-29T12:54:48.979Z,15.88
2019-01-29T12:55:56.097Z,16.02
2019-01-29T12:57:02.847Z,20.08
2019-01-29T12:58:09.943Z,21.95
2019-01-29T12:59:16.720Z,25.40
2019-01-29T13:00:25.695Z,23.55
2019-01-29T13:01:32.361Z,22.27
2019-01-29T13:02:39.140Z,20.55
2019-01-29T13:03:46.172Z,17.87
2019-01-29T13:04:53.195Z,18.07
2019-01-29T13:06:00.375Z,19.37
2019-01-29T13:07:07.033Z,18.20
2019-01-29T13:08:14.364Z,17.45
2019-01-29T13:09:21.013Z,21.45
2019-01-29T13:10:28.322Z,17.62
2019-01-29T13:11:35.353Z,22.07
2019-01-29T13:12:42.774Z,18.50
2019-01-29T13:13:49.599Z,17.75
2019-01-29T13:14:56.285Z,12.82
2019-01-29T13:16:02.940Z,12.25
2019-01-29T13:17:10.033Z,20.72
2019-01-29T13:18:16.809Z,13.53
2019-01-29T13:19:23.640Z,16.37
2019-01-29T13:20:30.332Z,12.05
2019-01-29T13:21:36.989Z,13.70
2019-01-29T13:22:44.075Z,12.37
2019-01-29T13:23:51.144Z,10.93
2019-01-29T13:24:57.847Z,9.18
2019-01-29T13:26:04.907Z,18.17
2019-01-29T13:27:12.008Z,13.20
2019-01-29T13:28:18.672Z,13.68
2019-01-29T13:29:25.662Z,9.50
2019-01-29T13:30:35.061Z,9.43
2019-01-29T13:31:41.812Z,9.88
2019-01-29T13:32:48.503Z,8.80
2019-01-29T13:33:55.197Z,11.50
2019-01-29T13:35:02.151Z,20.02
2019-01-29T13:36:09.879Z,15.78
2019-01-29T13:37:16.637Z,12.47
2019-01-29T13:38:23.728Z,9.55
2019-01-29T13:39:30.463Z,13.20
2019-01-29T13:40:37.360Z,16.12
2019-01-29T13:41:44.286Z,11.97
2019-01-29T13:42:50.955Z,7.87
2019-01-29T13:43:57.645Z,10.90
2019-01-29T13:45:05.087Z,11.18
2019-01-29T13:46:12.038Z,11.15
2019-01-29T13:47:18.988Z,10.80
2019-01-29T13:48:25.788Z,10.28
2019-01-29T13:49:32.501Z,8.83
2019-01-29T13:50:51.695Z,12.05
2019-01-29T13:51:58.643Z,9.63
2019-01-29T13:53:06.192Z,9.10
2019-01-29T13:54:13.230Z,10.30
2019-01-29T13:55:20.515Z,7.30
2019-01-29T13:56:27.937Z,7.20
2019-01-29T13:57:35.007Z,6.80
2019-01-29T13:58:41.663Z,17.65
2019-01-29T13:59:48.397Z,11.88
2019-01-29T14:00:55.883Z,9.10
2019-01-29T14:02:02.862Z,20.90
2019-01-29T14:03:10.823Z,12.98
2019-01-29T14:04:17.461Z,14.98
2019-01-29T14:05:24.545Z,9.55
2019-01-29T14:06:31.279Z,12.98
2019-01-29T14:07:38.003Z,16.87
2019-01-29T14:08:44.680Z,11.97
2019-01-29T14:09:51.396Z,11.38
2019-01-29T14:10:58.377Z,9.78
2019-01-29T14:12:05.880Z,16.85
2019-01-29T14:13:12.538Z,8.68
2019-01-29T14:14:19.240Z,13.75
2019-01-29T14:16:02.161Z,9.83
2019-01-29T14:17:09.022Z,9.88
2019-01-29T14:18:17.446Z,15.90
2019-01-29T14:19:24.413Z,14.38
2019-01-29T14:20:31.073Z,19.25
2019-01-29T14:21:37.821Z,15.05
2019-01-29T14:22:44.488Z,11.28
2019-01-29T14:23:51.466Z,15.30
2019-01-29T14:24:58.151Z,12.95
2019-01-29T14:26:04.969Z,11.63
2019-01-29T14:27:11.938Z,11.80
2019-01-29T14:28:18.965Z,15.83
2019-01-29T14:29:25.697Z,10.20
2019-01-29T14:30:32.714Z,18.95